Time;durP1;ratioP1;P1;durP2;ratioP2;P2;SDS_P1;SDS_P2;PMS_P1;PMS_P2;Temp;Humidity;BMP_temperature;BMP_pressure;BME280_temperature;BME280_humidity;BME280_pressure;Samples;Min_cycle;Max_cycle;Signal;HPM_P1;HPM_P2
2023/06/02 00:01:00;;;;;;;0.20;0.20;;;12.80;99.90;;;;;;5082069;28;20107;-42
2023/06/02 00:03:30;;;;;;;0.10;0.10;;;12.80;99.90;;;;;;5093202;28;20059;-40
2023/06/02 00:05:57;;;;;;;0.10;0.10;;;12.80;99.90;;;;;;5093591;28;20035;-43
2023/06/02 00:08:23;;;;;;;0.20;0.20;;;12.80;99.90;;;;;;5093277;28;20044;-54
2023/06/02 00:10:49;;;;;;;0.10;0.10;;;12.80;99.90;;;;;;5093510;28;20070;-48
2023/06/02 00:13:15;;;;;;;0.60;0.60;;;12.70;99.90;;;;;;5093517;28;20024;-45
2023/06/02 00:15:40;;;;;;;0.20;0.20;;;12.70;99.90;;;;;;5093090;28;20093;-49
2023/06/02 00:18:07;;;;;;;0.20;0.20;;;12.70;99.90;;;;;;5092793;28;20024;-46
2023/06/02 00:20:33;;;;;;;0.10;0.10;;;12.80;99.90;;;;;;5092766;28;20021;-44
2023/06/02 00:23:01;;;;;;;0.20;0.20;;;12.70;99.90;;;;;;5092731;28;20033;-41
2023/06/02 00:25:27;;;;;;;0.10;0.10;;;12.70;99.90;;;;;;5093109;28;20024;-50
2023/06/02 00:27:53;;;;;;;0.10;0.10;;;12.70;99.90;;;;;;5080914;28;20035;-48
2023/06/02 00:30:18;;;;;;;0.10;0.10;;;12.70;99.90;;;;;;5092527;28;20109;-43
2023/06/02 00:32:45;;;;;;;0.10;0.10;;;12.60;99.90;;;;;;5092460;28;20116;-52
2023/06/02 00:35:10;;;;;;;0.20;0.20;;;12.60;99.90;;;;;;5088018;28;20502;-43
2023/06/02 00:37:36;;;;;;;0.10;0.10;;;12.50;99.90;;;;;;5084707;28;20024;-45
2023/06/02 00:40:02;;;;;;;0.20;0.20;;;12.50;99.90;;;;;;5092086;28;20024;-45
2023/06/02 00:42:28;;;;;;;0.20;0.20;;;12.50;99.90;;;;;;5092244;28;20031;-41
2023/06/02 00:44:53;;;;;;;0.20;0.20;;;12.50;99.90;;;;;;5092247;28;20051;-50
2023/06/02 00:47:19;;;;;;;0.20;0.20;;;12.50;99.90;;;;;;5092155;28;20020;-48
2023/06/02 00:49:44;;;;;;;0.20;0.20;;;12.50;99.90;;;;;;5091145;28;20158;-44
2023/06/02 00:52:10;;;;;;;0.20;0.20;;;12.40;99.90;;;;;;5092519;28;20016;-40
2023/06/02 00:54:36;;;;;;;0.15;0.15;;;12.50;99.90;;;;;;5092662;28;20026;-44
2023/06/02 00:57:02;;;;;;;0.10;0.10;;;12.40;99.90;;;;;;5089009;28;20024;-41
2023/06/02 00:59:28;;;;;;;0.10;0.10;;;12.40;99.90;;;;;;5092181;28;20040;-49
2023/06/02 01:01:54;;;;;;;0.20;0.20;;;12.40;99.90;;;;;;5091474;28;20055;-44
2023/06/02 01:04:21;;;;;;;0.20;0.20;;;12.50;99.90;;;;;;5091894;28;20044;-56
2023/06/02 01:06:48;;;;;;;0.20;0.20;;;12.40;99.90;;;;;;5091813;28;20475;-43
2023/06/02 01:09:16;;;;;;;0.20;0.20;;;12.50;99.90;;;;;;5091903;28;20440;-43
2023/06/02 01:11:48;;;;;;;0.20;0.20;;;12.50;99.90;;;;;;5092089;28;20479;-40
2023/06/02 01:14:14;;;;;;;0.20;0.20;;;12.50;99.90;;;;;;5091798;28;20420;-42
2023/06/02 01:16:44;;;;;;;0.20;0.20;;;12.50;99.90;;;;;;5091647;28;20491;-41
2023/06/02 01:19:13;;;;;;;;;;;12.50;99.90;;;;;;5092576;28;20024;-45
2023/06/02 01:21:40;;;;;;;0.20;0.20;;;12.50;99.90;;;;;;5091251;28;20286;-39
2023/06/02 01:24:06;;;;;;;0.20;0.20;;;12.40;99.90;;;;;;5091944;28;20735;-40
2023/06/02 01:26:34;;;;;;;0.10;0.10;;;12.50;99.90;;;;;;5090362;28;20024;-47
2023/06/02 01:29:01;;;;;;;0.20;0.20;;;12.50;99.90;;;;;;5083223;28;20423;-39
2023/06/02 01:31:33;;;;;;;0.20;0.20;;;12.50;99.90;;;;;;5091423;28;20016;-47
2023/06/02 01:34:12;;;;;;;0.20;0.20;;;12.40;99.90;;;;;;5091687;28;20024;-45
2023/06/02 01:36:40;;;;;;;0.20;0.20;;;12.40;99.90;;;;;;5091386;28;20033;-40
2023/06/02 01:39:08;;;;;;;0.20;0.20;;;12.40;99.90;;;;;;5090908;28;20037;-40
2023/06/02 01:41:37;;;;;;;0.10;0.10;;;12.40;99.90;;;;;;5091558;28;20098;-53
2023/06/02 01:44:03;;;;;;;0.20;0.20;;;12.40;99.90;;;;;;5091417;28;20058;-43
2023/06/02 01:46:29;;;;;;;0.20;0.20;;;12.40;99.90;;;;;;5091074;28;20417;-43
2023/06/02 01:48:55;;;;;;;0.20;0.20;;;12.40;99.90;;;;;;5090587;28;20036;-45
2023/06/02 01:51:21;;;;;;;0.20;0.20;;;12.40;99.90;;;;;;5091091;28;20077;-49
2023/06/02 01:53:47;;;;;;;0.20;0.20;;;12.30;99.90;;;;;;5091204;28;20056;-42
2023/06/02 01:56:13;;;;;;;0.13;0.13;;;12.40;99.90;;;;;;5091515;28;20071;-47
2023/06/02 01:58:38;;;;;;;0.20;0.20;;;12.40;99.90;;;;;;5089975;28;20024;-50
2023/06/02 02:01:04;;;;;;;0.17;0.17;;;12.40;99.90;;;;;;5091220;28;20032;-46
2023/06/02 02:03:30;;;;;;;0.20;0.20;;;12.30;99.90;;;;;;5089632;28;20024;-51
2023/06/02 02:05:56;;;;;;;0.20;0.20;;;12.40;99.90;;;;;;5089621;28;20048;-50
2023/06/02 02:08:22;;;;;;;0.13;0.13;;;12.40;99.90;;;;;;5090456;28;20130;-48
2023/06/02 02:10:48;;;;;;;0.10;0.10;;;12.40;99.90;;;;;;5090618;28;20119;-56
2023/06/02 02:13:14;;;;;;;0.20;0.20;;;12.40;99.90;;;;;;5090797;28;20479;-41
2023/06/02 02:15:39;;;;;;;0.20;0.20;;;12.40;99.90;;;;;;5091264;28;20031;-46
2023/06/02 02:18:05;;;;;;;0.20;0.20;;;12.40;99.90;;;;;;5086226;28;20024;-39
2023/06/02 02:20:31;;;;;;;0.20;0.20;;;12.40;99.90;;;;;;5082335;28;20035;-43
2023/06/02 02:22:56;;;;;;;0.20;0.20;;;12.40;99.90;;;;;;5090717;28;20023;-48
2023/06/02 02:25:22;;;;;;;0.10;0.10;;;12.30;99.90;;;;;;5090491;28;20107;-46
2023/06/02 02:27:48;;;;;;;0.20;0.20;;;12.40;99.90;;;;;;5090522;28;20491;-39
2023/06/02 02:30:14;;;;;;;0.20;0.20;;;12.40;99.90;;;;;;5090727;28;20032;-40
2023/06/02 02:32:43;;;;;;;0.20;0.20;;;12.40;99.90;;;;;;5090036;28;20032;-39
2023/06/02 02:35:09;;;;;;;0.20;0.20;;;12.30;99.90;;;;;;5090933;28;20020;-39
2023/06/02 02:37:38;;;;;;;0.20;0.20;;;12.40;99.90;;;;;;5090601;28;20034;-47
2023/06/02 02:40:05;;;;;;;0.20;0.20;;;12.30;99.90;;;;;;5090809;28;20073;-40
2023/06/02 02:42:33;;;;;;;0.20;0.20;;;12.30;99.90;;;;;;5090816;28;20028;-42
2023/06/02 02:45:02;;;;;;;0.20;0.20;;;12.30;99.90;;;;;;5090546;28;20051;-54
2023/06/02 02:47:28;;;;;;;0.20;0.20;;;12.30;99.90;;;;;;5090461;28;20035;-50
2023/06/02 02:49:53;;;;;;;0.20;0.20;;;12.30;99.90;;;;;;5088813;28;20032;-49
2023/06/02 02:52:20;;;;;;;0.20;0.20;;;12.30;99.90;;;;;;5097357;28;20051;-44
2023/06/02 02:54:46;;;;;;;0.20;0.20;;;12.30;99.90;;;;;;5097192;28;20032;-49
2023/06/02 02:57:11;;;;;;;0.20;0.20;;;12.30;99.90;;;;;;5095731;28;20032;-42
2023/06/02 02:59:37;;;;;;;0.20;0.20;;;12.20;99.90;;;;;;5097370;28;20032;-54
2023/06/02 03:02:05;;;;;;;0.10;0.10;;;12.20;99.90;;;;;;5096960;28;20023;-53
2023/06/02 03:04:32;;;;;;;0.20;0.20;;;12.20;99.90;;;;;;5097442;28;20020;-54
2023/06/02 03:06:58;;;;;;;0.20;0.20;;;12.20;99.90;;;;;;5097061;28;20386;-48
2023/06/02 03:09:24;;;;;;;0.20;0.20;;;12.20;99.90;;;;;;5084514;28;20031;-42
2023/06/02 03:11:50;;;;;;;0.20;0.20;;;12.20;99.90;;;;;;5088503;28;20028;-43
2023/06/02 03:14:15;;;;;;;0.20;0.20;;;12.30;99.90;;;;;;5096807;28;20038;-51
2023/06/02 03:16:41;;;;;;;0.20;0.20;;;12.20;99.90;;;;;;5095036;28;20035;-53
2023/06/02 03:19:13;;;;;;;0.20;0.20;;;12.20;99.90;;;;;;5096995;28;20055;-47
2023/06/02 03:21:43;;;;;;;0.10;0.10;;;12.20;99.90;;;;;;5097136;28;20505;-45
2023/06/02 03:24:15;;;;;;;0.20;0.20;;;12.20;99.90;;;;;;5096965;28;20028;-49
2023/06/02 03:26:41;;;;;;;0.20;0.20;;;12.20;99.90;;;;;;5097132;28;20024;-50
2023/06/02 03:29:11;;;;;;;0.20;0.20;;;12.20;99.90;;;;;;5096313;28;20059;-52
2023/06/02 03:31:36;;;;;;;;;;;12.10;99.90;;;;;;5095594;28;20016;-50
2023/06/02 03:34:03;;;;;;;0.20;0.20;;;12.10;99.90;;;;;;5096653;28;19908;-46
2023/06/02 03:36:29;;;;;;;0.20;0.20;;;12.10;99.90;;;;;;5096796;28;20027;-40
2023/06/02 03:38:55;;;;;;;0.10;0.10;;;12.10;99.90;;;;;;5095557;28;20024;-44
2023/06/02 03:41:21;;;;;;;0.20;0.20;;;12.00;99.90;;;;;;5097129;28;20076;-43
2023/06/02 03:43:47;;;;;;;0.20;0.20;;;12.00;99.90;;;;;;5096761;28;20045;-45
2023/06/02 03:46:13;;;;;;;0.20;0.20;;;12.00;99.90;;;;;;5096576;28;20024;-48
2023/06/02 03:48:38;;;;;;;0.20;0.20;;;11.90;99.90;;;;;;5096794;28;20046;-46
2023/06/02 03:51:04;;;;;;;0.13;0.13;;;11.90;99.90;;;;;;5096544;28;20480;-47
2023/06/02 03:53:30;;;;;;;0.20;0.20;;;11.90;99.90;;;;;;5097231;28;20020;-53
2023/06/02 03:55:56;;;;;;;0.20;0.20;;;11.80;99.90;;;;;;5096669;28;20024;-51
2023/06/02 03:58:23;;;;;;;0.20;0.20;;;11.80;99.90;;;;;;5096732;28;20020;-45
2023/06/02 04:00:49;;;;;;;0.20;0.20;;;11.80;99.90;;;;;;5096471;28;20482;-47
2023/06/02 04:03:14;;;;;;;0.20;0.20;;;11.80;99.90;;;;;;5092411;28;20100;-51
2023/06/02 04:05:41;;;;;;;0.20;0.20;;;11.80;99.90;;;;;;5093530;28;20055;-41
2023/06/02 04:08:07;;;;;;;0.20;0.20;;;11.80;99.90;;;;;;5086349;28;20422;-47
2023/06/02 04:10:33;;;;;;;0.20;0.20;;;11.80;99.90;;;;;;5088897;28;20024;-47
2023/06/02 04:12:58;;;;;;;0.20;0.20;;;11.80;99.90;;;;;;5093050;28;20024;-47
2023/06/02 04:15:24;;;;;;;0.13;0.13;;;11.80;99.90;;;;;;5087522;28;20020;-47
2023/06/02 04:17:50;;;;;;;0.20;0.20;;;11.80;99.90;;;;;;5063270;28;20098;-47
2023/06/02 04:20:16;;;;;;;0.20;0.20;;;11.80;99.90;;;;;;5072566;28;20107;-43
2023/06/02 04:22:41;;;;;;;0.20;0.20;;;11.70;99.90;;;;;;5067851;28;20460;-46
2023/06/02 04:25:07;;;;;;;0.20;0.20;;;11.80;99.90;;;;;;5068030;28;20378;-46
2023/06/02 04:27:33;;;;;;;0.20;0.20;;;11.80;99.90;;;;;;5056212;28;20073;-41
2023/06/02 04:30:01;;;;;;;0.10;0.10;;;11.80;99.90;;;;;;5066547;28;20025;-43
2023/06/02 04:32:26;;;;;;;0.10;0.10;;;11.80;99.90;;;;;;5069571;28;20473;-51
2023/06/02 04:34:52;;;;;;;0.45;0.30;;;11.80;99.90;;;;;;5072338;28;20073;-47
2023/06/02 04:37:18;;;;;;;0.20;0.20;;;11.80;99.90;;;;;;5067559;28;20031;-40
2023/06/02 04:39:47;;;;;;;0.55;0.40;;;11.80;99.90;;;;;;5072427;28;20060;-46
2023/06/02 04:42:13;;;;;;;0.20;0.20;;;11.80;99.90;;;;;;5072416;28;20066;-44
2023/06/02 04:44:39;;;;;;;0.20;0.20;;;11.90;99.90;;;;;;5072199;28;20045;-46
2023/06/02 04:47:06;;;;;;;0.20;0.20;;;11.90;99.90;;;;;;5071997;28;20021;-56
2023/06/02 04:49:31;;;;;;;0.10;0.10;;;11.90;99.90;;;;;;5072444;28;20037;-48
2023/06/02 04:51:57;;;;;;;0.20;0.20;;;11.90;99.90;;;;;;5069579;28;20028;-50
2023/06/02 04:54:23;;;;;;;0.20;0.20;;;11.90;99.90;;;;;;5072143;28;20105;-59
2023/06/02 04:56:49;;;;;;;0.20;0.20;;;11.90;99.90;;;;;;5072342;28;20394;-50
2023/06/02 04:59:14;;;;;;;0.17;0.17;;;11.90;99.90;;;;;;5070820;28;20017;-39
2023/06/02 05:01:40;;;;;;;0.20;0.20;;;11.90;99.90;;;;;;5071879;28;20658;-48
2023/06/02 05:04:06;;;;;;;0.20;0.20;;;12.00;99.90;;;;;;5071944;28;20028;-45
2023/06/02 05:06:32;;;;;;;0.20;0.20;;;11.90;99.90;;;;;;5064898;28;20364;-46
2023/06/02 05:08:57;;;;;;;0.20;0.20;;;12.00;99.90;;;;;;5064779;28;20442;-44
2023/06/02 05:11:23;;;;;;;0.10;0.10;;;12.00;99.90;;;;;;5068038;28;20355;-49
2023/06/02 05:13:49;;;;;;;0.20;0.20;;;12.00;99.90;;;;;;5079370;28;20128;-45
2023/06/02 05:16:14;;;;;;;0.20;0.20;;;12.10;99.90;;;;;;5069681;28;20059;-41
2023/06/02 05:18:40;;;;;;;0.20;0.20;;;12.00;99.90;;;;;;5069713;28;20054;-40
2023/06/02 05:21:06;;;;;;;0.20;0.20;;;12.00;99.90;;;;;;5080498;28;20471;-42
2023/06/02 05:23:31;;;;;;;0.20;0.20;;;12.10;99.90;;;;;;5086566;28;20047;-46
2023/06/02 05:25:57;;;;;;;0.20;0.20;;;12.10;99.90;;;;;;5090011;28;20745;-40
2023/06/02 05:28:23;;;;;;;0.20;0.20;;;12.10;99.90;;;;;;5078148;28;20859;-49
2023/06/02 05:30:48;;;;;;;0.20;0.20;;;12.20;99.90;;;;;;5077885;28;20031;-50
2023/06/02 05:33:14;;;;;;;0.20;0.20;;;12.20;99.90;;;;;;5069608;28;20021;-42
2023/06/02 05:35:39;;;;;;;0.20;0.20;;;12.10;99.90;;;;;;5069662;28;20440;-43
2023/06/02 05:38:05;;;;;;;0.20;0.20;;;12.10;99.90;;;;;;5069559;28;20035;-42
2023/06/02 05:40:31;;;;;;;0.20;0.20;;;12.10;99.90;;;;;;5069434;28;20013;-46
2023/06/02 05:42:56;;;;;;;0.20;0.20;;;12.10;99.90;;;;;;5069977;28;20028;-51
2023/06/02 05:45:22;;;;;;;0.20;0.20;;;12.10;99.90;;;;;;5071062;28;20395;-50
2023/06/02 05:47:50;;;;;;;0.13;0.13;;;12.10;99.90;;;;;;5071061;28;20086;-50
2023/06/02 05:50:16;;;;;;;0.20;0.20;;;12.10;99.90;;;;;;5071229;28;20589;-39
2023/06/02 05:52:41;;;;;;;0.20;0.20;;;12.10;99.90;;;;;;5070831;28;20099;-49
2023/06/02 05:55:07;;;;;;;0.20;0.20;;;12.10;99.90;;;;;;5071089;28;20029;-42
2023/06/02 05:57:33;;;;;;;0.20;0.20;;;12.20;99.90;;;;;;5070984;28;20499;-48
2023/06/02 05:59:58;;;;;;;0.20;0.20;;;12.20;99.90;;;;;;5071016;28;20056;-46
2023/06/02 06:02:24;;;;;;;0.20;0.20;;;12.20;99.90;;;;;;5065488;28;20027;-45
2023/06/02 06:04:50;;;;;;;0.20;0.20;;;12.30;99.90;;;;;;5071249;28;20033;-40
2023/06/02 06:07:16;;;;;;;0.20;0.20;;;12.30;99.90;;;;;;5070767;28;20483;-40
2023/06/02 06:09:41;;;;;;;0.20;0.20;;;12.30;99.90;;;;;;5070821;28;20498;-47
2023/06/02 06:12:07;;;;;;;0.20;0.20;;;12.30;99.90;;;;;;5070721;28;20024;-41
2023/06/02 06:14:33;;;;;;;0.20;0.20;;;12.30;99.90;;;;;;5070721;28;20052;-45
2023/06/02 06:16:59;;;;;;;0.20;0.20;;;12.30;99.90;;;;;;5070873;28;20479;-44
2023/06/02 06:19:24;;;;;;;0.20;0.20;;;12.30;99.90;;;;;;5065565;28;20028;-39
2023/06/02 06:21:50;;;;;;;0.20;0.20;;;12.30;99.90;;;;;;5084063;28;20033;-46
2023/06/02 06:24:15;;;;;;;0.20;0.20;;;12.30;99.90;;;;;;5090685;28;20028;-47
2023/06/02 06:26:41;;;;;;;0.20;0.20;;;12.30;99.90;;;;;;5090853;28;20104;-51
2023/06/02 06:29:07;;;;;;;0.20;0.20;;;12.40;99.90;;;;;;5091035;28;20391;-43
2023/06/02 06:31:32;;;;;;;0.20;0.20;;;12.40;99.90;;;;;;5090843;28;20016;-47
2023/06/02 06:33:59;;;;;;;0.20;0.20;;;12.40;99.90;;;;;;5090985;28;20032;-40
2023/06/02 06:36:24;;;;;;;0.20;0.20;;;12.40;99.90;;;;;;5090956;28;20028;-47
2023/06/02 06:38:50;;;;;;;0.20;0.20;;;12.50;99.90;;;;;;5086573;28;20391;-39
2023/06/02 06:41:18;;;;;;;0.20;0.20;;;12.50;99.90;;;;;;5090903;28;20032;-45
2023/06/02 06:43:43;;;;;;;0.20;0.20;;;12.60;99.90;;;;;;5090538;28;20024;-47
2023/06/02 06:46:09;;;;;;;0.30;0.30;;;12.70;99.90;;;;;;5090709;28;20016;-50
2023/06/02 06:48:35;;;;;;;0.20;0.20;;;12.70;99.90;;;;;;5090912;28;20040;-42
2023/06/02 06:51:00;;;;;;;0.20;0.20;;;12.60;99.90;;;;;;5090609;28;20102;-54
2023/06/02 06:53:27;;;;;;;0.20;0.20;;;12.70;99.90;;;;;;5077675;28;20090;-47
2023/06/02 06:55:53;;;;;;;0.20;0.20;;;12.70;99.90;;;;;;5087539;28;20013;-55
2023/06/02 06:58:19;;;;;;;0.20;0.20;;;12.70;99.90;;;;;;5090650;28;20085;-47
2023/06/02 07:00:45;;;;;;;0.20;0.20;;;12.80;99.90;;;;;;5080822;28;20488;-42
2023/06/02 07:03:11;;;;;;;0.20;0.20;;;12.80;99.90;;;;;;5078869;28;20047;-42
2023/06/02 07:05:36;;;;;;;0.20;0.20;;;12.80;99.90;;;;;;5060978;28;20316;-47
2023/06/02 07:08:02;;;;;;;0.20;0.20;;;12.90;99.90;;;;;;5069296;28;20029;-40
2023/06/02 07:10:28;;;;;;;0.10;0.10;;;12.90;99.90;;;;;;5070136;28;20029;-43
2023/06/02 07:12:53;;;;;;;0.20;0.20;;;13.00;99.90;;;;;;5070194;28;20035;-44
2023/06/02 07:15:19;;;;;;;0.20;0.20;;;13.00;99.90;;;;;;5070066;28;20111;-43
2023/06/02 07:17:45;;;;;;;0.20;0.20;;;12.90;99.90;;;;;;5070227;28;20495;-40
2023/06/02 07:20:12;;;;;;;0.15;0.15;;;13.00;99.90;;;;;;5071937;28;20023;-51
2023/06/02 07:22:38;;;;;;;0.20;0.20;;;13.00;99.90;;;;;;5087547;28;20062;-51
2023/06/02 07:25:05;;;;;;;0.20;0.20;;;13.10;99.90;;;;;;5090354;28;20073;-40
2023/06/02 07:27:31;;;;;;;0.20;0.20;;;13.10;99.90;;;;;;5090645;28;20020;-43
2023/06/02 07:29:57;;;;;;;0.20;0.20;;;13.10;99.90;;;;;;5090283;28;20028;-52
2023/06/02 07:32:22;;;;;;;0.25;0.25;;;13.30;99.90;;;;;;5089993;28;20008;-53
2023/06/02 07:34:48;;;;;;;0.13;0.13;;;13.30;99.90;;;;;;5090269;28;20047;-46
2023/06/02 07:37:14;;;;;;;0.10;0.10;;;13.40;99.90;;;;;;5091677;28;20020;-55
2023/06/02 07:39:39;;;;;;;0.10;0.10;;;13.50;99.90;;;;;;5093950;28;20031;-41
2023/06/02 07:42:06;;;;;;;0.20;0.20;;;13.50;99.90;;;;;;5093967;28;20387;-46
2023/06/02 07:44:31;;;;;;;0.20;0.20;;;13.50;99.90;;;;;;5093740;28;20499;-48
2023/06/02 07:46:57;;;;;;;0.20;0.20;;;13.40;99.90;;;;;;5093944;28;20031;-48
2023/06/02 07:49:23;;;;;;;0.10;0.10;;;13.40;99.90;;;;;;5093612;28;20039;-46
2023/06/02 07:51:48;;;;;;;0.20;0.20;;;13.30;99.90;;;;;;5088572;28;20048;-47
2023/06/02 07:54:15;;;;;;;0.20;0.20;;;13.20;99.90;;;;;;5091222;28;20023;-48
2023/06/02 07:56:40;;;;;;;0.10;0.10;;;13.30;99.90;;;;;;5093801;28;20048;-52
2023/06/02 07:59:06;;;;;;;0.20;0.20;;;13.40;99.90;;;;;;5089360;28;20059;-48
2023/06/02 08:01:32;;;;;;;0.20;0.20;;;13.50;99.90;;;;;;5093626;28;20383;-45
2023/06/02 08:03:58;;;;;;;0.20;0.20;;;13.60;99.90;;;;;;5093610;28;20035;-42
2023/06/02 08:06:23;;;;;;;0.20;0.20;;;13.70;99.90;;;;;;5093408;28;20020;-42
2023/06/02 08:08:49;;;;;;;0.20;0.20;;;13.70;99.90;;;;;;5093592;28;20047;-51
2023/06/02 08:11:14;;;;;;;0.20;0.20;;;13.80;99.90;;;;;;5093272;28;20016;-40
2023/06/02 08:13:40;;;;;;;0.20;0.20;;;14.00;99.90;;;;;;5092021;28;20066;-50
2023/06/02 08:16:06;;;;;;;0.10;0.10;;;14.10;99.90;;;;;;5093627;28;20108;-46
2023/06/02 08:18:31;;;;;;;0.20;0.20;;;14.10;99.90;;;;;;5093392;28;20099;-44
2023/06/02 08:20:57;;;;;;;0.10;0.10;;;13.90;99.90;;;;;;5093353;28;20085;-48
2023/06/02 08:23:23;;;;;;;0.10;0.10;;;14.00;99.90;;;;;;5093010;28;20510;-40
2023/06/02 08:25:49;;;;;;;0.17;0.17;;;14.10;99.90;;;;;;5080362;28;20130;-42
2023/06/02 08:28:14;;;;;;;0.20;0.20;;;14.10;99.90;;;;;;5072437;28;20033;-41
2023/06/02 08:30:46;;;;;;;0.20;0.20;;;14.10;99.90;;;;;;5060955;28;20028;-45
2023/06/02 08:33:11;;;;;;;0.10;0.10;;;14.10;99.90;;;;;;5072779;28;20075;-49
2023/06/02 08:35:37;;;;;;;0.20;0.20;;;14.20;99.90;;;;;;5069436;28;20452;-53
2023/06/02 08:38:06;;;;;;;0.13;0.13;;;14.20;99.90;;;;;;5062886;28;20044;-41
2023/06/02 08:40:37;;;;;;;0.10;0.10;;;14.30;99.90;;;;;;5072073;28;20048;-48
2023/06/02 08:43:04;;;;;;;0.10;0.10;;;14.30;99.90;;;;;;5067860;28;20028;-45
2023/06/02 08:45:30;;;;;;;0.20;0.20;;;14.30;99.90;;;;;;5071436;28;20515;-49
2023/06/02 08:47:57;;;;;;;0.20;0.20;;;14.30;99.90;;;;;;5071767;28;20041;-47
2023/06/02 08:50:27;;;;;;;0.10;0.10;;;14.30;99.90;;;;;;5072567;28;20024;-44
2023/06/02 08:52:56;;;;;;;0.10;0.10;;;14.30;99.90;;;;;;5072161;28;20468;-44
2023/06/02 08:55:26;;;;;;;0.20;0.20;;;14.40;99.90;;;;;;5060258;28;20086;-46
2023/06/02 08:57:52;;;;;;;0.13;0.13;;;14.40;99.90;;;;;;5075990;28;20425;-44
2023/06/02 09:00:19;;;;;;;0.20;0.20;;;14.40;99.90;;;;;;5077792;28;20025;-43
2023/06/02 09:02:48;;;;;;;0.20;0.20;;;14.50;99.90;;;;;;5072091;28;20409;-45
2023/06/02 09:05:16;;;;;;;0.10;0.10;;;14.50;99.90;;;;;;5072088;28;20384;-47
2023/06/02 09:07:44;;;;;;;0.20;0.20;;;14.50;99.90;;;;;;5068822;28;20572;-41
2023/06/02 09:10:10;;;;;;;0.13;0.13;;;14.50;99.90;;;;;;5061666;28;20037;-44
2023/06/02 09:12:48;;;;;;;0.13;0.13;;;14.40;99.90;;;;;;5065443;28;20025;-51
2023/06/02 09:15:14;;;;;;;0.10;0.10;;;14.30;99.90;;;;;;5070251;28;20043;-49
2023/06/02 09:17:40;;;;;;;0.10;0.10;;;14.40;99.90;;;;;;5071840;28;20034;-45
2023/06/02 09:20:10;;;;;;;0.10;0.10;;;14.30;99.90;;;;;;5062974;28;20397;-50
2023/06/02 09:22:52;;;;;;;0.20;0.20;;;14.40;99.90;;;;;;5092384;28;20020;-45
2023/06/02 09:25:28;;;;;;;0.20;0.20;;;14.50;99.90;;;;;;5090994;28;20033;-43
2023/06/02 09:27:55;;;;;;;0.10;0.10;;;14.50;99.90;;;;;;5074713;28;20025;-53
2023/06/02 09:30:21;;;;;;;0.20;0.20;;;14.70;99.90;;;;;;5071497;28;20036;-44
2023/06/02 09:33:05;;;;;;;0.20;0.20;;;14.70;99.90;;;;;;5071637;28;20047;-44
2023/06/02 09:35:42;;;;;;;0.20;0.20;;;14.90;99.90;;;;;;5068760;28;20020;-43
2023/06/02 09:38:13;;;;;;;0.20;0.20;;;14.90;99.90;;;;;;5071485;28;20017;-42
2023/06/02 09:40:40;;;;;;;0.20;0.20;;;15.10;99.90;;;;;;5071330;28;20024;-42
2023/06/02 09:43:08;;;;;;;0.10;0.10;;;15.10;99.90;;;;;;5071332;28;20475;-42
2023/06/02 09:45:58;;;;;;;0.20;0.20;;;15.20;99.90;;;;;;5054167;28;20087;-48
2023/06/02 09:48:23;;;;;;;0.10;0.10;;;15.20;99.90;;;;;;5071213;28;20386;-44
2023/06/02 09:50:49;;;;;;;0.10;0.10;;;15.30;99.90;;;;;;5070973;28;20087;-40
2023/06/02 09:53:17;;;;;;;0.10;0.10;;;15.50;99.90;;;;;;5071012;28;20098;-49
2023/06/02 09:55:44;;;;;;;0.10;0.10;;;15.30;99.90;;;;;;5070672;28;20422;-53
2023/06/02 09:58:10;;;;;;;0.10;0.10;;;15.20;99.90;;;;;;5070830;28;20100;-45
2023/06/02 10:00:35;;;;;;;0.10;0.10;;;15.30;99.90;;;;;;5070326;28;20056;-42
2023/06/02 10:03:02;;;;;;;0.20;0.20;;;15.10;99.90;;;;;;5070626;28;20378;-45
2023/06/02 10:05:28;;;;;;;0.10;0.10;;;15.30;99.90;;;;;;5070855;28;20016;-46
2023/06/02 10:08:09;;;;;;;0.10;0.10;;;15.60;99.90;;;;;;5070743;28;20052;-52
2023/06/02 10:10:53;;;;;;;0.20;0.20;;;15.60;99.90;;;;;;5070824;28;20016;-46
2023/06/02 10:13:25;;;;;;;0.10;0.10;;;15.70;99.90;;;;;;5071088;28;20012;-53
2023/06/02 10:16:20;;;;;;;0.10;0.10;;;15.70;99.90;;;;;;5064193;28;20027;-51
2023/06/02 10:19:10;;;;;;;0.20;0.20;;;15.70;99.90;;;;;;5070668;28;20055;-53
2023/06/02 10:21:55;;;;;;;0.10;0.10;;;15.80;99.90;;;;;;5085819;28;20032;-42
2023/06/02 10:25:15;;;;;;;0.20;0.20;;;15.80;99.90;;;;;;5077248;28;20032;-43
2023/06/02 10:27:44;;;;;;;0.15;0.15;;;15.80;99.90;;;;;;5035758;28;20047;-54
2023/06/02 10:30:10;;;;;;;0.10;0.10;;;15.60;99.90;;;;;;5065651;28;20048;-49
2023/06/02 10:32:44;;;;;;;0.10;0.10;;;15.70;99.90;;;;;;5068833;28;20368;-46
2023/06/02 10:35:10;;;;;;;0.10;0.10;;;15.70;99.90;;;;;;5080358;28;20035;-51
2023/06/02 10:37:37;;;;;;;0.20;0.20;;;15.90;99.90;;;;;;5070211;28;20033;-44
2023/06/02 10:40:04;;;;;;;0.40;0.40;;;16.00;99.90;;;;;;5070839;28;20035;-54
2023/06/02 10:42:31;;;;;;;0.10;0.10;;;16.30;99.90;;;;;;5070180;28;20369;-44
2023/06/02 10:45:20;;;;;;;0.20;0.20;;;16.30;99.90;;;;;;5070233;28;20407;-42
2023/06/02 10:47:46;;;;;;;0.10;0.10;;;16.20;99.90;;;;;;5070132;28;20380;-47
2023/06/02 10:50:21;;;;;;;0.10;0.10;;;16.70;99.90;;;;;;5070495;28;20032;-43
2023/06/02 10:52:59;;;;;;;0.20;0.20;;;17.40;99.90;;;;;;5070193;28;20032;-41
2023/06/02 10:55:31;;;;;;;0.10;0.10;;;17.80;99.00;;;;;;5070350;28;20028;-48
2023/06/02 10:57:58;;;;;;;0.20;0.20;;;17.90;97.40;;;;;;5069846;28;20024;-44
2023/06/02 11:00:32;;;;;;;0.10;0.10;;;18.40;99.70;;;;;;5060141;28;20113;-44
2023/06/02 11:03:21;;;;;;;0.10;0.10;;;19.30;98.50;;;;;;5058708;28;20036;-47
2023/06/02 11:05:49;;;;;;;0.10;0.10;;;19.90;93.30;;;;;;5061552;28;20032;-43
2023/06/02 11:08:18;;;;;;;0.10;0.10;;;19.70;94.20;;;;;;5069920;28;20134;-45
2023/06/02 11:10:58;;;;;;;0.10;0.10;;;19.70;92.40;;;;;;5070748;28;20043;-44
2023/06/02 11:13:25;;;;;;;0.10;0.10;;;19.60;92.70;;;;;;5068691;28;20486;-51
2023/06/02 11:15:58;;;;;;;0.20;0.20;;;19.60;91.30;;;;;;5083305;28;20059;-43
2023/06/02 11:18:25;;;;;;;0.15;0.15;;;20.10;92.60;;;;;;5094332;28;20409;-43
2023/06/02 11:20:53;;;;;;;0.10;0.10;;;20.50;89.50;;;;;;5094652;28;20020;-44
2023/06/02 11:23:20;;;;;;;0.10;0.10;;;20.60;85.90;;;;;;5094122;28;20194;-42
2023/06/02 11:25:47;;;;;;;0.10;0.10;;;20.50;82.50;;;;;;5068212;28;20422;-40
2023/06/02 11:28:21;;;;;;;0.10;0.10;;;20.80;80.10;;;;;;5077483;28;20154;-49
2023/06/02 11:31:11;;;;;;;0.10;0.10;;;20.80;79.80;;;;;;5073557;28;20024;-46
2023/06/02 11:33:38;;;;;;;0.10;0.10;;;21.30;85.10;;;;;;5073604;28;20082;-45
2023/06/02 11:36:05;;;;;;;0.10;0.10;;;21.20;75.40;;;;;;5061385;28;20028;-44
2023/06/02 11:38:32;;;;;;;0.10;0.10;;;20.70;75.40;;;;;;5073556;28;20021;-41
2023/06/02 11:41:14;;;;;;;0.10;0.10;;;20.30;77.60;;;;;;5073445;28;20024;-41
2023/06/02 11:43:45;;;;;;;0.10;0.10;;;20.20;77.00;;;;;;5073381;28;20391;-43
2023/06/02 11:46:11;;;;;;;0.17;0.17;;;19.70;78.00;;;;;;5064054;28;20043;-42
2023/06/02 11:48:38;;;;;;;0.10;0.10;;;19.80;80.10;;;;;;5073350;28;20040;-50
2023/06/02 11:51:15;;;;;;;0.32;0.32;;;19.60;78.40;;;;;;5073579;28;20027;-48
2023/06/02 11:53:45;;;;;;;0.10;0.10;;;20.20;85.40;;;;;;5073157;28;20123;-50
2023/06/02 11:56:12;;;;;;;0.10;0.10;;;20.70;82.90;;;;;;5072979;28;20017;-43
2023/06/02 11:58:42;;;;;;;0.10;0.10;;;21.10;81.20;;;;;;5072984;28;20390;-47
2023/06/02 12:01:17;;;;;;;0.10;0.10;;;21.20;79.90;;;;;;5073227;28;20025;-53
2023/06/02 12:04:06;;;;;;;0.10;0.10;;;20.20;78.20;;;;;;5073066;28;20040;-53
2023/06/02 12:06:34;;;;;;;0.10;0.10;;;20.40;80.90;;;;;;5072480;28;20039;-43
2023/06/02 12:09:11;;;;;;;0.10;0.10;;;20.70;82.10;;;;;;5068514;28;20150;-50
2023/06/02 12:11:36;;;;;;;0.10;0.10;;;20.60;81.00;;;;;;5072898;28;20080;-43
2023/06/02 12:14:10;;;;;;;0.10;0.10;;;20.40;77.60;;;;;;5073072;28;20020;-48
2023/06/02 12:16:40;;;;;;;0.10;0.10;;;20.60;80.40;;;;;;5072817;28;20016;-48
2023/06/02 12:19:22;;;;;;;0.10;0.10;;;20.40;81.40;;;;;;5072293;28;20032;-44
2023/06/02 12:21:50;;;;;;;0.10;0.10;;;20.50;80.30;;;;;;5086971;28;20028;-39
2023/06/02 12:24:38;;;;;;;0.10;0.10;;;20.80;79.60;;;;;;5090992;28;20031;-40
2023/06/02 12:27:05;;;;;;;0.43;0.28;;;20.70;76.40;;;;;;5091261;28;20253;-38
2023/06/02 12:29:31;;;;;;;0.10;0.10;;;20.40;80.00;;;;;;5092270;28;20394;-41
2023/06/02 12:31:57;;;;;;;0.10;0.10;;;20.00;76.70;;;;;;5089015;28;20028;-42
2023/06/02 12:34:23;;;;;;;0.10;0.10;;;19.90;78.70;;;;;;5066366;28;20526;-49
2023/06/02 12:36:49;;;;;;;0.10;0.10;;;19.90;78.80;;;;;;5071746;28;20032;-44
2023/06/02 12:39:14;;;;;;;0.10;0.10;;;19.80;78.40;;;;;;5072685;28;20418;-44
2023/06/02 12:41:40;;;;;;;0.20;0.20;;;19.70;81.70;;;;;;5079583;28;20055;-48
2023/06/02 12:44:05;;;;;;;0.10;0.10;;;19.80;80.50;;;;;;5092531;28;20418;-45
2023/06/02 12:46:31;;;;;;;0.10;0.10;;;19.80;83.30;;;;;;5092447;28;20390;-42
2023/06/02 12:49:00;;;;;;;0.10;0.10;;;19.90;81.80;;;;;;5092473;28;20036;-42
2023/06/02 12:51:26;;;;;;;0.10;0.10;;;19.70;80.40;;;;;;5092528;28;20016;-43